Terminal Aerodrome Forecast
Issued by NWS Kansas City/Pleasant Hill, MO

Home | Current Version | Previous Version | Text Only | Print | Product List | Glossary On
Versions: 1 2 3 4 5 6 7 8 9 10 11 12 13 14 15 16 17 18 19 20 21 22
693
FTUS43 KEAX 211343 AAA
TAFMCI
TAF AMD
KMCI 211343Z 2114/2212 23005KT 2SM BR OVC002
     FM211600 21008KT 4SM BR SCT200
      TEMPO 2116/2118 1SM BR BKN003
     FM211800 21007KT P6SM BKN200
     FM212300 VRB05KT P6SM OVC070
     FM220100 VRB05KT P6SM VCSH OVC050
     FM220500 02011KT 2SM -RA BR OVC015=

USA.gov is the U.S. government's official web portal to all federal, state and local government web resources and services.